Terminal Aerodrome Forecast
Issued by NWS Wichita, KS

Home | Current Version | Previous Version | Text Only | Print | Product List | Glossary Off
Versions: 1 2 3 4 5 6 7 8 9 10 11 12 13 14 15 16 17 18 19 20

000
FTUS43 KICT 311504 AAB
TAFICT
TAF AMD
KICT 311504Z 3115/0112 16011KT 6SM -RA BR SCT030 OVC060
     FM312000 17013KT 2SM -RA SCT007 OVC015
     FM010900 31013KT 1 1/2SM -RASN SCT007 BKN015=

USA.gov is the U.S. government's official web portal to all federal, state and local government web resources and services.